Terminal Aerodrome Forecast
Issued by NWS Portland, OR

Home | Current Version | Previous Version | Text Only | Print | Product List | Glossary On
Versions: 1 2 3 4 5 6 7 8 9 10 11 12 13 14 15 16 17 18 19 20 21 22 23 24 25 26 27 28 29 30 31 32 33 34 35 36 37 38
000
FTUS46 KPQR 182114 AAA
TAFTTD
TAF AMD
KTTD 182114Z 1821/1918 09022G33KT 5SM -RA SCT015 OVC060
     FM190000 09018G28KT P6SM -SHRA SCT015 BKN050
     FM190600 09012KT P6SM -SHRA SCT025 BKN050
     FM191000 09012KT P6SM -SHRA BKN025 BKN050=

USA.gov is the U.S. government's official web portal to all federal, state and local government web resources and services.